createdAt,value
2017-05-10T00:00:31.678Z,0
2017-05-10T00:01:41.642Z,0
2017-05-10T00:02:51.914Z,0
2017-05-10T00:04:02.447Z,0
2017-05-10T00:05:12.719Z,0
2017-05-10T00:06:22.366Z,0
2017-05-10T00:07:32.352Z,0
2017-05-10T00:08:42.330Z,0
2017-05-10T00:09:52.851Z,0
2017-05-10T00:11:03.130Z,0
2017-05-10T00:12:13.420Z,0
2017-05-10T00:13:23.706Z,0
2017-05-10T00:14:33.980Z,0
2017-05-10T00:15:43.888Z,0
2017-05-10T00:16:54.173Z,0
2017-05-10T00:18:04.447Z,0
2017-05-10T00:19:14.729Z,0
2017-05-10T00:20:24.699Z,0
2017-05-10T00:21:35.238Z,0
2017-05-10T00:22:45.207Z,0
2017-05-10T00:23:55.486Z,0
2017-05-10T00:25:05.768Z,0
2017-05-10T00:26:15.114Z,0
2017-05-10T00:27:25.648Z,0
2017-05-10T00:28:35.927Z,0
2017-05-10T00:29:46.205Z,0
2017-05-10T00:30:56.179Z,0
2017-05-10T00:32:06.466Z,0
2017-05-10T00:33:17.033Z,0
2017-05-10T00:34:27.010Z,0
2017-05-10T00:35:36.983Z,0
2017-05-10T00:36:47.277Z,0
2017-05-10T00:37:57.550Z,0
2017-05-10T00:39:08.077Z,0
2017-05-10T00:40:18.358Z,0
2017-05-10T00:41:28.636Z,0
2017-05-10T00:42:38.613Z,0
2017-05-10T00:43:48.582Z,0
2017-05-10T00:44:58.817Z,0
2017-05-10T00:46:08.796Z,0
2017-05-10T00:47:18.760Z,0
2017-05-10T00:48:29.050Z,0
2017-05-10T00:49:39.346Z,0
2017-05-10T00:50:49.875Z,0
2017-05-10T00:52:00.152Z,0
2017-05-10T00:53:10.125Z,0
2017-05-10T00:54:20.424Z,0
2017-05-10T00:55:30.701Z,0
2017-05-10T00:56:41.427Z,0
2017-05-10T00:57:51.711Z,0
2017-05-10T00:59:01.689Z,0
2017-05-10T01:00:11.975Z,0
2017-05-10T01:01:22.264Z,0
2017-05-10T01:02:32.474Z,0
2017-05-10T01:03:42.170Z,0
2017-05-10T01:04:52.462Z,0
2017-05-10T01:06:02.125Z,0
2017-05-10T01:07:12.093Z,0
2017-05-10T01:08:22.626Z,0
2017-05-10T01:09:32.603Z,0
2017-05-10T01:10:42.878Z,0
2017-05-10T01:11:53.158Z,0
2017-05-10T01:13:03.450Z,0
2017-05-10T01:14:14.013Z,0
2017-05-10T01:15:23.979Z,0
2017-05-10T01:16:34.267Z,0
2017-05-10T01:17:44.239Z,0
2017-05-10T01:18:54.532Z,0
2017-05-10T01:20:05.057Z,0
2017-05-10T01:21:15.331Z,0
2017-05-10T01:22:25.612Z,0
2017-05-10T01:23:35.578Z,0
2017-05-10T01:24:45.239Z,0
2017-05-10T01:25:55.761Z,0
2017-05-10T01:27:05.422Z,0
2017-05-10T01:28:15.714Z,0
2017-05-10T01:29:25.998Z,0
2017-05-10T01:30:36.289Z,0
2017-05-10T01:31:46.820Z,0
2017-05-10T01:32:56.788Z,0
2017-05-10T01:34:06.762Z,0
2017-05-10T01:35:17.030Z,0
2017-05-10T01:36:27.304Z,0
2017-05-10T01:37:37.832Z,0
2017-05-10T01:38:48.144Z,0
2017-05-10T01:39:58.436Z,0
2017-05-10T01:41:08.713Z,0
2017-05-10T01:42:19.001Z,0
2017-05-10T01:43:29.216Z,0
2017-05-10T01:44:39.505Z,0
2017-05-10T01:45:49.467Z,0
2017-05-10T01:46:59.446Z,0
2017-05-10T01:48:09.413Z,0
2017-05-10T01:49:19.947Z,0
2017-05-10T01:50:30.231Z,0
2017-05-10T01:51:40.190Z,0
2017-05-10T01:52:50.470Z,0
2017-05-10T01:54:00.745Z,0
2017-05-10T01:55:11.267Z,0
2017-05-10T01:56:21.230Z,0
2017-05-10T01:57:31.211Z,0
2017-05-10T01:58:41.499Z,0
2017-05-10T01:59:51.787Z,0
2017-05-10T02:01:02.325Z,0
2017-05-10T02:02:12.604Z,0
2017-05-10T02:03:22.268Z,0
2017-05-10T02:04:32.560Z,0
2017-05-10T02:05:42.839Z,0
2017-05-10T02:06:53.611Z,0
2017-05-10T02:08:03.899Z,0
2017-05-10T02:09:14.192Z,0
2017-05-10T02:10:23.550Z,0
2017-05-10T02:11:33.508Z,0
2017-05-10T02:12:43.743Z,0
2017-05-10T02:13:53.715Z,0
2017-05-10T02:15:04.002Z,0
2017-05-10T02:16:14.287Z,0
2017-05-10T02:17:24.249Z,0
2017-05-10T02:18:34.781Z,0
2017-05-10T02:19:45.066Z,0
2017-05-10T02:20:55.347Z,0
2017-05-10T02:22:05.317Z,0
2017-05-10T02:23:15.289Z,0
2017-05-10T02:24:25.504Z,0
2017-05-10T02:25:35.472Z,0
2017-05-10T02:26:45.768Z,0
2017-05-10T02:27:55.420Z,0
2017-05-10T02:29:05.701Z,0
2017-05-10T02:30:16.239Z,0
2017-05-10T02:31:26.203Z,0
2017-05-10T02:32:36.175Z,0
2017-05-10T02:33:46.138Z,0
2017-05-10T02:34:56.114Z,0
2017-05-10T02:36:06.649Z,0
2017-05-10T02:37:16.924Z,0
2017-05-10T02:38:27.203Z,0
2017-05-10T02:39:37.480Z,0
2017-05-10T02:40:47.758Z,0
2017-05-10T02:41:57.975Z,0
2017-05-10T02:43:07.938Z,0
2017-05-10T02:44:18.237Z,0
2017-05-10T02:45:28.515Z,0
2017-05-10T02:46:38.787Z,0
2017-05-10T02:47:49.322Z,0
2017-05-10T02:48:58.674Z,0
2017-05-10T02:50:08.963Z,0
2017-05-10T02:51:19.471Z,0
2017-05-10T02:52:29.747Z,0
2017-05-10T02:53:40.270Z,0
2017-05-10T02:54:49.932Z,0
2017-05-10T02:56:00.263Z,0
2017-05-10T02:57:10.555Z,0
2017-05-10T02:58:20.839Z,0
2017-05-10T02:59:31.053Z,0
2017-05-10T03:00:41.329Z,0
2017-05-10T03:01:51.617Z,0
2017-05-10T03:03:01.584Z,0
2017-05-10T03:04:11.870Z,0
2017-05-10T03:05:22.092Z,0
2017-05-10T03:06:32.061Z,0
2017-05-10T03:07:42.343Z,0
2017-05-10T03:08:52.624Z,0
2017-05-10T03:10:02.915Z,0
2017-05-10T03:11:13.439Z,0
2017-05-10T03:12:23.730Z,0
2017-05-10T03:13:34.011Z,0
2017-05-10T03:14:44.296Z,0
2017-05-10T03:15:54.576Z,0
2017-05-10T03:17:04.799Z,0
2017-05-10T03:18:14.751Z,0
2017-05-10T03:19:25.043Z,0
2017-05-10T03:20:35.015Z,0
2017-05-10T03:21:45.289Z,0
2017-05-10T03:22:56.326Z,0
2017-05-10T03:24:06.316Z,0
2017-05-10T03:25:16.318Z,0
2017-05-10T03:26:26.294Z,0
2017-05-10T03:27:36.262Z,0
2017-05-10T03:28:46.485Z,0
2017-05-10T03:29:56.768Z,0
2017-05-10T03:31:06.741Z,0
2017-05-10T03:32:16.705Z,0
2017-05-10T03:33:26.992Z,0
2017-05-10T03:34:37.527Z,0
2017-05-10T03:35:47.802Z,0
2017-05-10T03:36:58.084Z,0
2017-05-10T03:38:08.364Z,0
2017-05-10T03:39:18.372Z,0
2017-05-10T03:40:28.905Z,0
2017-05-10T03:41:39.191Z,0
2017-05-10T03:42:49.165Z,0
2017-05-10T03:43:59.152Z,0
2017-05-10T03:45:09.122Z,4
2017-05-10T03:46:19.653Z,4
2017-05-10T03:47:29.620Z,4
2017-05-10T03:48:39.903Z,0
2017-05-10T03:49:50.181Z,28
2017-05-10T03:51:00.146Z,140
2017-05-10T03:52:10.678Z,148
2017-05-10T03:53:20.958Z,152
2017-05-10T03:54:31.249Z,164
2017-05-10T03:55:41.533Z,176
2017-05-10T03:56:51.824Z,188
2017-05-10T03:58:02.054Z,208
2017-05-10T03:59:12.338Z,232
2017-05-10T04:00:22.648Z,256
2017-05-10T04:01:32.935Z,284
2017-05-10T04:02:43.221Z,304
2017-05-10T04:03:53.754Z,320
2017-05-10T04:05:04.048Z,324
2017-05-10T04:06:14.351Z,352
2017-05-10T04:07:24.635Z,364
2017-05-10T04:08:34.674Z,376
2017-05-10T04:09:45.087Z,384
2017-05-10T04:10:55.052Z,392
2017-05-10T04:12:05.344Z,392
2017-05-10T04:13:15.013Z,392
2017-05-10T04:14:25.300Z,384
2017-05-10T04:15:35.843Z,380
2017-05-10T04:16:45.817Z,372
2017-05-10T04:17:55.477Z,368
2017-05-10T04:19:05.449Z,360
2017-05-10T04:20:15.730Z,352
2017-05-10T04:21:26.275Z,360
2017-05-10T04:22:36.292Z,380
2017-05-10T04:23:46.565Z,416
2017-05-10T04:24:56.896Z,448
2017-05-10T04:26:07.166Z,424
2017-05-10T04:27:17.438Z,448
2017-05-10T04:28:27.733Z,508
2017-05-10T04:29:38.015Z,552
2017-05-10T04:30:48.296Z,560
2017-05-10T04:31:58.586Z,564
2017-05-10T04:33:09.112Z,576
2017-05-10T04:34:19.384Z,596
2017-05-10T04:35:29.668Z,624
2017-05-10T04:36:39.944Z,668
2017-05-10T04:37:49.914Z,720
2017-05-10T04:39:00.450Z,760
2017-05-10T04:40:10.436Z,788
2017-05-10T04:41:20.771Z,800
2017-05-10T04:42:30.769Z,804
2017-05-10T04:43:40.736Z,808
2017-05-10T04:44:51.268Z,816
2017-05-10T04:46:01.261Z,820
2017-05-10T04:47:11.551Z,832
2017-05-10T04:48:21.827Z,852
2017-05-10T04:49:31.795Z,880
2017-05-10T04:50:42.320Z,936
2017-05-10T04:51:52.300Z,1000
2017-05-10T04:53:02.598Z,1056
2017-05-10T04:54:12.887Z,1096
2017-05-10T04:55:23.159Z,1132
2017-05-10T04:56:33.688Z,1148
2017-05-10T04:57:43.973Z,1168
2017-05-10T04:58:53.984Z,1184
2017-05-10T05:00:04.305Z,1212
2017-05-10T05:01:14.624Z,1196
2017-05-10T05:02:25.153Z,1156
2017-05-10T05:03:35.434Z,1072
2017-05-10T05:04:45.403Z,932
2017-05-10T05:05:55.701Z,804
2017-05-10T05:07:05.702Z,688
2017-05-10T05:08:15.939Z,504
2017-05-10T05:09:25.911Z,468
2017-05-10T05:10:36.203Z,456
2017-05-10T05:11:46.490Z,424
2017-05-10T05:12:56.481Z,524
2017-05-10T05:14:06.702Z,652
2017-05-10T05:15:16.980Z,616
2017-05-10T05:16:26.947Z,564
2017-05-10T05:17:37.227Z,648
2017-05-10T05:18:47.219Z,740
2017-05-10T05:19:57.444Z,924
2017-05-10T05:21:07.735Z,1252
2017-05-10T05:22:18.054Z,1488
2017-05-10T05:23:27.783Z,1616
2017-05-10T05:24:37.767Z,1692
2017-05-10T05:25:48.310Z,1696
2017-05-10T05:26:58.599Z,1684
2017-05-10T05:28:08.880Z,1624
2017-05-10T05:29:19.161Z,1576
2017-05-10T05:30:29.456Z,1552
2017-05-10T05:31:40.156Z,1524
2017-05-10T05:32:50.469Z,1508
2017-05-10T05:34:00.472Z,1484
2017-05-10T05:35:10.779Z,1464
2017-05-10T05:36:20.748Z,1452
2017-05-10T05:37:30.962Z,1440
2017-05-10T05:38:40.940Z,1428
2017-05-10T05:39:50.620Z,1408
2017-05-10T05:41:00.587Z,1376
2017-05-10T05:42:10.571Z,1372
2017-05-10T05:43:21.129Z,1396
2017-05-10T05:44:31.413Z,1448
2017-05-10T05:45:41.697Z,1496
2017-05-10T05:46:51.979Z,1560
2017-05-10T05:48:02.267Z,1644
2017-05-10T05:49:12.546Z,1744
2017-05-10T05:50:22.558Z,1844
2017-05-10T05:51:32.581Z,1976
2017-05-10T05:52:42.590Z,2040
2017-05-10T05:53:52.874Z,2104
2017-05-10T05:55:03.462Z,2152
2017-05-10T05:56:13.743Z,2176
2017-05-10T05:57:23.114Z,2232
2017-05-10T05:58:33.092Z,2320
2017-05-10T05:59:42.762Z,2452
2017-05-10T06:00:53.288Z,2564
2017-05-10T06:02:03.263Z,2656
2017-05-10T06:03:13.559Z,2712
2017-05-10T06:04:23.577Z,2744
2017-05-10T06:05:33.886Z,2796
2017-05-10T06:06:44.117Z,2964
2017-05-10T06:07:54.089Z,3048
2017-05-10T06:09:04.457Z,3052
2017-05-10T06:10:14.453Z,2948
2017-05-10T06:11:24.753Z,2936
2017-05-10T06:12:35.301Z,2820
2017-05-10T06:13:45.591Z,2740
2017-05-10T06:14:55.879Z,2644
2017-05-10T06:16:05.863Z,2612
2017-05-10T06:17:16.145Z,2656
2017-05-10T06:18:26.375Z,2624
2017-05-10T06:19:36.665Z,2564
2017-05-10T06:20:46.981Z,2560
2017-05-10T06:21:57.282Z,2568
2017-05-10T06:23:07.255Z,2576
2017-05-10T06:24:17.796Z,2564
2017-05-10T06:25:28.093Z,2536
2017-05-10T06:26:38.107Z,2492
2017-05-10T06:27:48.396Z,2432
2017-05-10T06:28:58.702Z,2368
2017-05-10T06:30:09.243Z,2280
2017-05-10T06:31:19.541Z,2200
2017-05-10T06:32:29.552Z,2208
2017-05-10T06:33:39.849Z,2264
2017-05-10T06:34:50.137Z,2360
2017-05-10T06:36:00.697Z,2500
2017-05-10T06:37:10.672Z,2656
2017-05-10T06:38:20.653Z,2908
2017-05-10T06:39:30.957Z,3120
2017-05-10T06:40:41.250Z,3172
2017-05-10T06:41:51.825Z,3072
2017-05-10T06:43:02.114Z,3108
2017-05-10T06:44:12.097Z,3092
2017-05-10T06:45:22.388Z,3172
2017-05-10T06:46:32.682Z,3152
2017-05-10T06:47:43.228Z,3288
2017-05-10T06:48:53.535Z,3364
2017-05-10T06:50:03.843Z,3496
2017-05-10T06:51:13.827Z,3536
2017-05-10T06:52:24.118Z,3736
2017-05-10T06:53:34.665Z,3720
2017-05-10T06:54:44.961Z,3624
2017-05-10T06:55:55.255Z,3540
2017-05-10T06:57:05.543Z,3432
2017-05-10T06:58:15.513Z,3352
2017-05-10T06:59:26.055Z,3296
2017-05-10T07:00:36.362Z,3128
2017-05-10T07:01:46.034Z,3028
2017-05-10T07:02:56.307Z,2884
2017-05-10T07:04:05.991Z,2784
2017-05-10T07:05:16.216Z,2768
2017-05-10T07:06:26.513Z,2752
2017-05-10T07:07:36.814Z,2776
2017-05-10T07:08:47.109Z,2832
2017-05-10T07:09:57.449Z,2836
2017-05-10T07:11:07.689Z,3084
2017-05-10T07:12:17.986Z,3288
2017-05-10T07:13:28.299Z,3512
2017-05-10T07:14:38.599Z,3188
2017-05-10T07:15:48.886Z,3148
2017-05-10T07:16:59.428Z,2860
2017-05-10T07:18:09.723Z,2820
2017-05-10T07:19:20.019Z,3028
2017-05-10T07:20:29.690Z,3380
2017-05-10T07:21:39.365Z,3504
2017-05-10T07:22:49.899Z,3680
2017-05-10T07:23:59.888Z,3560
2017-05-10T07:25:09.871Z,3544
2017-05-10T07:26:19.556Z,3512
2017-05-10T07:27:29.585Z,3444
2017-05-10T07:28:40.131Z,3560
2017-05-10T07:29:50.420Z,3604
2017-05-10T07:31:00.704Z,3720
2017-05-10T07:32:11.024Z,2988
2017-05-10T07:33:21.011Z,2944
2017-05-10T07:34:31.557Z,3164
2017-05-10T07:35:41.858Z,3140
2017-05-10T07:36:52.166Z,3004
2017-05-10T07:38:02.467Z,3168
2017-05-10T07:39:12.451Z,3248
2017-05-10T07:40:22.991Z,3380
2017-05-10T07:41:33.288Z,3452
2017-05-10T07:42:43.595Z,3256
2017-05-10T07:43:53.924Z,3092
2017-05-10T07:45:03.909Z,3392
2017-05-10T07:46:14.127Z,3312
2017-05-10T07:47:24.435Z,3188
2017-05-10T07:48:34.726Z,3360
2017-05-10T07:49:45.055Z,3384
2017-05-10T07:50:55.045Z,3448
2017-05-10T07:52:05.292Z,3460
2017-05-10T07:53:15.642Z,3236
2017-05-10T07:54:25.974Z,2756
2017-05-10T07:55:36.034Z,2824
2017-05-10T07:56:46.342Z,2928
2017-05-10T07:57:56.880Z,2480
2017-05-10T07:59:06.864Z,2628
2017-05-10T08:00:17.191Z,2736
2017-05-10T08:01:27.510Z,2708
2017-05-10T08:02:37.823Z,3088
2017-05-10T08:03:48.117Z,3368
2017-05-10T08:04:58.131Z,3180
2017-05-10T08:06:07.815Z,2924
2017-05-10T08:07:17.805Z,2060
2017-05-10T08:08:28.117Z,2536
2017-05-10T08:09:38.669Z,2512
2017-05-10T08:10:48.970Z,2736
2017-05-10T08:11:59.319Z,2724
2017-05-10T08:13:09.631Z,2856
2017-05-10T08:14:19.935Z,2656
2017-05-10T08:15:30.513Z,2808
2017-05-10T08:16:40.827Z,3160
2017-05-10T08:17:51.132Z,3780
2017-05-10T08:19:01.132Z,3828
2017-05-10T08:20:11.412Z,3528
2017-05-10T08:21:21.974Z,3608
2017-05-10T08:22:32.304Z,3160
2017-05-10T08:23:42.609Z,3096
2017-05-10T08:24:52.895Z,3160
2017-05-10T08:26:02.879Z,3388
2017-05-10T08:27:13.420Z,3448
2017-05-10T08:28:23.740Z,3448
2017-05-10T08:29:34.039Z,3328
2017-05-10T08:30:44.042Z,3404
2017-05-10T08:31:53.720Z,3568
2017-05-10T08:33:03.657Z,3300
2017-05-10T08:34:13.644Z,3008
2017-05-10T08:35:23.671Z,3492
2017-05-10T08:36:33.353Z,3784
2017-05-10T08:37:43.651Z,3232
2017-05-10T08:38:53.913Z,3352
2017-05-10T08:40:04.200Z,3364
2017-05-10T08:41:14.182Z,3544
2017-05-10T08:42:24.165Z,3376
2017-05-10T08:43:33.826Z,2944
2017-05-10T08:44:44.374Z,3720
2017-05-10T08:45:54.680Z,3248
2017-05-10T08:47:04.664Z,3284
2017-05-10T08:48:14.953Z,2904
2017-05-10T08:49:24.629Z,3108
2017-05-10T08:50:34.858Z,3848
2017-05-10T08:51:45.148Z,3644
2017-05-10T08:52:55.448Z,3048
2017-05-10T08:54:05.439Z,2844
2017-05-10T08:55:15.743Z,3092
2017-05-10T08:56:26.277Z,3620
2017-05-10T08:57:36.563Z,3868
2017-05-10T08:58:46.863Z,3776
2017-05-10T08:59:56.556Z,2812
2017-05-10T09:01:06.529Z,2160
2017-05-10T09:02:17.068Z,2560
2017-05-10T09:03:27.372Z,2572
2017-05-10T09:04:37.668Z,2260
2017-05-10T09:05:47.704Z,2532
2017-05-10T09:06:57.986Z,2296
2017-05-10T09:08:08.233Z,2160
2017-05-10T09:09:18.236Z,2424
2017-05-10T09:10:27.906Z,2624
2017-05-10T09:11:38.274Z,2776
2017-05-10T09:12:48.605Z,2452
2017-05-10T09:13:59.149Z,2884
2017-05-10T09:15:09.467Z,3392
2017-05-10T09:16:19.788Z,3808
2017-05-10T09:17:29.810Z,3748
2017-05-10T09:18:39.853Z,4148
2017-05-10T09:19:50.446Z,3424
2017-05-10T09:21:00.816Z,3056
2017-05-10T09:22:10.494Z,3192
2017-05-10T09:23:19.852Z,3984
2017-05-10T09:24:30.148Z,4040
2017-05-10T09:25:40.679Z,3344
2017-05-10T09:26:50.959Z,2780
2017-05-10T09:28:01.295Z,2484
2017-05-10T09:29:11.588Z,2428
2017-05-10T09:30:21.876Z,2484
2017-05-10T09:31:32.427Z,2608
2017-05-10T09:32:42.716Z,3088
2017-05-10T09:33:53.014Z,3592
2017-05-10T09:35:03.007Z,3988
2017-05-10T09:36:13.309Z,3480
2017-05-10T09:37:23.610Z,3992
2017-05-10T09:38:33.925Z,3640
2017-05-10T09:39:43.610Z,4092
2017-05-10T09:40:53.277Z,4432
2017-05-10T09:42:03.570Z,4188
2017-05-10T09:43:13.828Z,3780
2017-05-10T09:44:23.834Z,4000
2017-05-10T09:45:34.132Z,3784
2017-05-10T09:46:44.420Z,3592
2017-05-10T09:47:54.708Z,3444
2017-05-10T09:49:05.246Z,4060
2017-05-10T09:50:15.223Z,4360
2017-05-10T09:51:25.571Z,4156
2017-05-10T09:52:35.561Z,3892
2017-05-10T09:53:45.868Z,3788
2017-05-10T09:54:56.406Z,3712
2017-05-10T09:56:06.708Z,3520
2017-05-10T09:57:16.711Z,3296
2017-05-10T09:58:26.940Z,3740
2017-05-10T09:59:37.427Z,4104
2017-05-10T10:00:48.015Z,4700
2017-05-10T10:01:58.342Z,4816
2017-05-10T10:03:08.295Z,4628
2017-05-10T10:04:18.337Z,4736
2017-05-10T10:05:28.629Z,4272
2017-05-10T10:06:39.172Z,3724
2017-05-10T10:07:49.473Z,3980
2017-05-10T10:08:59.805Z,3752
2017-05-10T10:10:10.115Z,3876
2017-05-10T10:11:20.077Z,4048
2017-05-10T10:12:30.632Z,3796
2017-05-10T10:13:40.292Z,3504
2017-05-10T10:14:50.580Z,3224
2017-05-10T10:16:00.569Z,3040
2017-05-10T10:17:10.571Z,2876
2017-05-10T10:18:20.835Z,3268
2017-05-10T10:19:30.835Z,3768
2017-05-10T10:20:41.131Z,4108
2017-05-10T10:21:51.128Z,4036
2017-05-10T10:23:01.646Z,4068
2017-05-10T10:24:11.886Z,3624
2017-05-10T10:25:22.168Z,4092
2017-05-10T10:26:32.483Z,4364
2017-05-10T10:27:42.455Z,4340
2017-05-10T10:28:52.759Z,4072
2017-05-10T10:30:02.669Z,3348
2017-05-10T10:31:12.637Z,2964
2017-05-10T10:32:22.645Z,3148
2017-05-10T10:33:32.975Z,3396
2017-05-10T10:34:42.988Z,3376
2017-05-10T10:35:53.256Z,3468
2017-05-10T10:37:03.557Z,3708
2017-05-10T10:38:13.856Z,3528
2017-05-10T10:39:24.189Z,3592
2017-05-10T10:40:34.199Z,3500
2017-05-10T10:41:44.115Z,3744
2017-05-10T10:42:54.410Z,3868
2017-05-10T10:44:04.080Z,3632
2017-05-10T10:45:14.183Z,3464
2017-05-10T10:46:24.082Z,3772
2017-05-10T10:47:34.669Z,4392
2017-05-10T10:48:45.021Z,4308
2017-05-10T10:49:55.030Z,3400
2017-05-10T10:51:05.333Z,3036
2017-05-10T10:52:15.388Z,3092
2017-05-10T10:53:25.935Z,2972
2017-05-10T10:54:36.251Z,3028
2017-05-10T10:55:46.538Z,2712
2017-05-10T10:56:56.530Z,2748
2017-05-10T10:58:06.820Z,3032
2017-05-10T10:59:17.375Z,3204
2017-05-10T11:00:27.354Z,3448
2017-05-10T11:01:37.650Z,3440
2017-05-10T11:02:47.942Z,3496
2017-05-10T11:03:58.230Z,4268
2017-05-10T11:05:08.176Z,4456
2017-05-10T11:06:18.150Z,4524
2017-05-10T11:07:28.454Z,4492
2017-05-10T11:08:38.755Z,4528
2017-05-10T11:09:49.066Z,4332
2017-05-10T11:10:59.622Z,4112
2017-05-10T11:12:09.940Z,3888
2017-05-10T11:13:19.930Z,3488
2017-05-10T11:14:30.223Z,3408
2017-05-10T11:15:40.513Z,3328
2017-05-10T11:16:50.846Z,3272
2017-05-10T11:18:01.148Z,3148
2017-05-10T11:19:11.462Z,2824
2017-05-10T11:20:21.144Z,3104
2017-05-10T11:21:31.384Z,3672
2017-05-10T11:22:41.990Z,3628
2017-05-10T11:23:52.279Z,3540
2017-05-10T11:25:02.574Z,4196
2017-05-10T11:26:12.873Z,5072
2017-05-10T11:27:22.877Z,5072
2017-05-10T11:28:33.415Z,4668
2017-05-10T11:29:43.736Z,4324
2017-05-10T11:30:54.054Z,4368
2017-05-10T11:32:04.066Z,4596
2017-05-10T11:33:14.388Z,4604
2017-05-10T11:34:24.916Z,4808
2017-05-10T11:35:34.912Z,4852
2017-05-10T11:36:45.211Z,4192
2017-05-10T11:37:55.198Z,3828
2017-05-10T11:39:05.496Z,3804
2017-05-10T11:40:15.752Z,3748
2017-05-10T11:41:25.762Z,4024
2017-05-10T11:42:35.109Z,3708
2017-05-10T11:43:45.292Z,3408
2017-05-10T11:44:55.593Z,3308
2017-05-10T11:46:05.843Z,3152
2017-05-10T11:47:16.154Z,2876
2017-05-10T11:48:26.451Z,3028
2017-05-10T11:49:36.133Z,3204
2017-05-10T11:50:46.449Z,3784
2017-05-10T11:51:57.038Z,3952
2017-05-10T11:53:07.356Z,3556
2017-05-10T11:54:17.710Z,3116
2017-05-10T11:55:28.044Z,3096
2017-05-10T11:56:38.331Z,3484
2017-05-10T11:57:48.576Z,3696
2017-05-10T11:58:58.897Z,3900
2017-05-10T12:00:09.197Z,4544
2017-05-10T12:01:18.900Z,4240
2017-05-10T12:02:28.917Z,4400
2017-05-10T12:03:39.144Z,4248
2017-05-10T12:04:48.837Z,3968
2017-05-10T12:05:58.850Z,4336
2017-05-10T12:07:08.853Z,4324
2017-05-10T12:08:19.110Z,4116
2017-05-10T12:09:29.675Z,3804
2017-05-10T12:10:39.973Z,4264
2017-05-10T12:11:50.285Z,4600
2017-05-10T12:13:00.585Z,4536
2017-05-10T12:14:10.556Z,4400
2017-05-10T12:15:20.804Z,4300
2017-05-10T12:16:31.123Z,4204
2017-05-10T12:17:41.444Z,4196
2017-05-10T12:18:51.426Z,3736
2017-05-10T12:20:01.408Z,3480
2017-05-10T12:21:11.678Z,3028
2017-05-10T12:22:21.986Z,3048
2017-05-10T12:23:31.966Z,2612
2017-05-10T12:24:41.950Z,2380
2017-05-10T12:25:52.271Z,2836
2017-05-10T12:27:02.808Z,2796
2017-05-10T12:28:13.109Z,3384
2017-05-10T12:29:23.088Z,3756
2017-05-10T12:30:32.749Z,3904
2017-05-10T12:31:43.045Z,3996
2017-05-10T12:32:53.695Z,3976
2017-05-10T12:34:04.003Z,3800
2017-05-10T12:35:14.288Z,3720
2017-05-10T12:36:24.582Z,3324
2017-05-10T12:37:34.902Z,3208
2017-05-10T12:38:45.142Z,3368
2017-05-10T12:39:55.129Z,3044
2017-05-10T12:41:05.432Z,2932
2017-05-10T12:42:15.109Z,2880
2017-05-10T12:43:25.099Z,2940
2017-05-10T12:44:35.340Z,2968
2017-05-10T12:45:45.626Z,3184
2017-05-10T12:46:55.307Z,3456
2017-05-10T12:48:05.286Z,3720
2017-05-10T12:49:15.343Z,3948
2017-05-10T12:50:25.585Z,4248
2017-05-10T12:51:35.886Z,3480
2017-05-10T12:52:46.195Z,3080
2017-05-10T12:53:56.508Z,3292
2017-05-10T12:55:06.826Z,3000
2017-05-10T12:56:17.373Z,3156
2017-05-10T12:57:27.362Z,3448
2017-05-10T12:58:37.360Z,3580
2017-05-10T12:59:47.653Z,3704
2017-05-10T13:00:57.645Z,3320
2017-05-10T13:02:08.214Z,3408
2017-05-10T13:03:18.210Z,3708
2017-05-10T13:04:28.536Z,3720
2017-05-10T13:05:38.844Z,3336
2017-05-10T13:06:49.140Z,3344
2017-05-10T13:07:59.698Z,2976
2017-05-10T13:09:09.993Z,3004
2017-05-10T13:10:20.366Z,3296
2017-05-10T13:11:30.383Z,3428
2017-05-10T13:12:40.681Z,3216
2017-05-10T13:13:51.219Z,3696
2017-05-10T13:15:00.894Z,3536
2017-05-10T13:16:11.217Z,3412
2017-05-10T13:17:21.193Z,3584
2017-05-10T13:18:31.482Z,4024
2017-05-10T13:19:41.723Z,3924
2017-05-10T13:20:52.016Z,3328
2017-05-10T13:22:02.310Z,3604
2017-05-10T13:23:12.601Z,3444
2017-05-10T13:24:22.585Z,3104
2017-05-10T13:25:32.513Z,3200
2017-05-10T13:26:42.492Z,3532
2017-05-10T13:27:52.814Z,3696
2017-05-10T13:29:02.787Z,3468
2017-05-10T13:30:13.078Z,3044
2017-05-10T13:31:23.323Z,3348
2017-05-10T13:32:33.608Z,3652
2017-05-10T13:33:43.892Z,3936
2017-05-10T13:34:53.564Z,4028
2017-05-10T13:36:03.870Z,3976
2017-05-10T13:37:14.417Z,3556
2017-05-10T13:38:24.100Z,3816
2017-05-10T13:39:34.379Z,3964
2017-05-10T13:40:44.682Z,3888
2017-05-10T13:41:54.984Z,3532
2017-05-10T13:43:05.572Z,2820
2017-05-10T13:44:15.556Z,2252
2017-05-10T13:45:25.850Z,2084
2017-05-10T13:46:36.156Z,2112
2017-05-10T13:47:46.454Z,2104
2017-05-10T13:48:56.687Z,2212
2017-05-10T13:50:06.967Z,2472
2017-05-10T13:51:17.249Z,2688
2017-05-10T13:52:27.557Z,2928
2017-05-10T13:53:37.843Z,2568
2017-05-10T13:54:47.777Z,2260
2017-05-10T13:55:57.753Z,2288
2017-05-10T13:57:07.731Z,2328
2017-05-10T13:58:18.020Z,2464
2017-05-10T13:59:28.312Z,2540
2017-05-10T14:00:38.852Z,2476
2017-05-10T14:01:49.131Z,3020
2017-05-10T14:02:59.427Z,2644
2017-05-10T14:04:09.716Z,2344
2017-05-10T14:05:19.997Z,2364
2017-05-10T14:06:30.536Z,2516
2017-05-10T14:07:40.507Z,2552
2017-05-10T14:08:50.497Z,2340
2017-05-10T14:10:00.477Z,2456
2017-05-10T14:11:11.010Z,2500
2017-05-10T14:12:21.235Z,2388
2017-05-10T14:13:31.566Z,2352
2017-05-10T14:14:41.235Z,2500
2017-05-10T14:15:51.557Z,2372
2017-05-10T14:17:01.839Z,2184
2017-05-10T14:18:12.372Z,2084
2017-05-10T14:19:22.653Z,1956
2017-05-10T14:20:32.940Z,1728
2017-05-10T14:21:42.919Z,1652
2017-05-10T14:22:53.221Z,1576
2017-05-10T14:24:03.775Z,1496
2017-05-10T14:25:14.058Z,1492
2017-05-10T14:26:24.346Z,1600
2017-05-10T14:27:34.318Z,1776
2017-05-10T14:28:44.616Z,1844
2017-05-10T14:29:55.155Z,1888
2017-05-10T14:31:05.477Z,1812
2017-05-10T14:32:15.158Z,1828
2017-05-10T14:33:25.173Z,1884
2017-05-10T14:34:35.564Z,2000
2017-05-10T14:35:46.141Z,2156
2017-05-10T14:36:56.430Z,2208
2017-05-10T14:38:06.719Z,2160
2017-05-10T14:39:16.712Z,2180
2017-05-10T14:40:27.014Z,1980
2017-05-10T14:41:36.946Z,1740
2017-05-10T14:42:47.228Z,1560
2017-05-10T14:43:57.205Z,1420
2017-05-10T14:45:07.487Z,1364
2017-05-10T14:46:17.782Z,1320
2017-05-10T14:47:28.010Z,1368
2017-05-10T14:48:37.994Z,1464
2017-05-10T14:49:47.975Z,1408
2017-05-10T14:50:58.258Z,1456
2017-05-10T14:52:08.572Z,1372
2017-05-10T14:53:19.103Z,1392
2017-05-10T14:54:29.103Z,1336
2017-05-10T14:55:39.087Z,1384
2017-05-10T14:56:49.391Z,1444
2017-05-10T14:57:59.382Z,1612
2017-05-10T14:59:10.425Z,1664
2017-05-10T15:00:20.721Z,2040
2017-05-10T15:01:31.010Z,1972
2017-05-10T15:02:41.297Z,1768
2017-05-10T15:03:51.619Z,1700
2017-05-10T15:05:02.162Z,1460
2017-05-10T15:06:12.137Z,1516
2017-05-10T15:07:22.125Z,1712
2017-05-10T15:08:32.406Z,1468
2017-05-10T15:09:42.697Z,1428
2017-05-10T15:10:53.258Z,1724
2017-05-10T15:12:03.224Z,2216
2017-05-10T15:13:13.505Z,2464
2017-05-10T15:14:23.796Z,2384
2017-05-10T15:15:33.479Z,1816
2017-05-10T15:16:44.034Z,1680
2017-05-10T15:17:54.319Z,1724
2017-05-10T15:19:04.612Z,1916
2017-05-10T15:20:14.908Z,1844
2017-05-10T15:21:24.892Z,2080
2017-05-10T15:22:35.439Z,2136
2017-05-10T15:23:45.725Z,1876
2017-05-10T15:24:55.401Z,2180
2017-05-10T15:26:05.374Z,1836
2017-05-10T15:27:15.668Z,1764
2017-05-10T15:28:26.201Z,2152
2017-05-10T15:29:36.187Z,2232
2017-05-10T15:30:46.477Z,2328
2017-05-10T15:31:56.815Z,2356
2017-05-10T15:33:07.094Z,2044
2017-05-10T15:34:17.686Z,1864
2017-05-10T15:35:27.975Z,1840
2017-05-10T15:36:38.256Z,1856
2017-05-10T15:37:48.542Z,1540
2017-05-10T15:38:58.840Z,1452
2017-05-10T15:40:09.381Z,1456
2017-05-10T15:41:19.356Z,1552
2017-05-10T15:42:29.656Z,1464
2017-05-10T15:43:39.628Z,1452
2017-05-10T15:44:49.963Z,1452
2017-05-10T15:46:00.205Z,1592
2017-05-10T15:47:10.485Z,1692
2017-05-10T15:48:20.450Z,1648
2017-05-10T15:49:30.736Z,1608
2017-05-10T15:50:41.022Z,1724
2017-05-10T15:51:51.243Z,1844
2017-05-10T15:53:01.539Z,1932
2017-05-10T15:54:11.814Z,2212
2017-05-10T15:55:21.803Z,2188
2017-05-10T15:56:32.108Z,2248
2017-05-10T15:57:42.645Z,2100
2017-05-10T15:58:52.615Z,2108
2017-05-10T16:00:02.589Z,2192